sensor_id;sensor_type;location;lat;lon;timestamp;P1;P2;P0
64138;PMS5003;50435;43.700;-79.318;2022-09-09T00:00:35;3;3;
64138;PMS5003;50435;43.700;-79.318;2022-09-09T00:03:08;6;6;
64138;PMS5003;50435;43.700;-79.318;2022-09-09T00:05:44;6;4;
64138;PMS5003;50435;43.700;-79.318;2022-09-09T00:08:19;3;3;
64138;PMS5003;50435;43.700;-79.318;2022-09-09T00:10:52;3;3;
64138;PMS5003;50435;43.700;-79.318;2022-09-09T00:13:25;6;6;
64138;PMS5003;50435;43.700;-79.318;2022-09-09T00:15:59;5;5;
64138;PMS5003;50435;43.700;-79.318;2022-09-09T00:18:31;6;5;
64138;PMS5003;50435;43.700;-79.318;2022-09-09T00:21:08;3;3;
64138;PMS5003;50435;43.700;-79.318;2022-09-09T00:23:42;5;5;
64138;PMS5003;50435;43.700;-79.318;2022-09-09T00:26:16;5;5;
64138;PMS5003;50435;43.700;-79.318;2022-09-09T00:28:51;7;4;
64138;PMS5003;50435;43.700;-79.318;2022-09-09T00:31:27;2;2;
64138;PMS5003;50435;43.700;-79.318;2022-09-09T00:33:57;4;4;
64138;PMS5003;50435;43.700;-79.318;2022-09-09T00:36:31;4;4;
64138;PMS5003;50435;43.700;-79.318;2022-09-09T00:39:02;6;6;
64138;PMS5003;50435;43.700;-79.318;2022-09-09T00:41:33;5;5;
64138;PMS5003;50435;43.700;-79.318;2022-09-09T00:44:18;5;5;
64138;PMS5003;50435;43.700;-79.318;2022-09-09T00:46:56;5;5;
64138;PMS5003;50435;43.700;-79.318;2022-09-09T00:49:35;5;5;
64138;PMS5003;50435;43.700;-79.318;2022-09-09T00:52:13;8;8;
64138;PMS5003;50435;43.700;-79.318;2022-09-09T00:54:54;6;6;
64138;PMS5003;50435;43.700;-79.318;2022-09-09T00:57:30;4;4;
64138;PMS5003;50435;43.700;-79.318;2022-09-09T01:00:15;4;4;
64138;PMS5003;50435;43.700;-79.318;2022-09-09T01:02:48;5;5;
64138;PMS5003;50435;43.700;-79.318;2022-09-09T01:05:26;7;5;
64138;PMS5003;50435;43.700;-79.318;2022-09-09T01:08:01;6;6;
64138;PMS5003;50435;43.700;-79.318;2022-09-09T01:10:36;10;7;
64138;PMS5003;50435;43.700;-79.318;2022-09-09T01:13:12;4;4;
64138;PMS5003;50435;43.700;-79.318;2022-09-09T01:15:45;7;7;
64138;PMS5003;50435;43.700;-79.318;2022-09-09T01:18:14;6;6;
64138;PMS5003;50435;43.700;-79.318;2022-09-09T01:20:47;10;8;
64138;PMS5003;50435;43.700;-79.318;2022-09-09T01:23:28;8;8;
64138;PMS5003;50435;43.700;-79.318;2022-09-09T01:26:15;8;8;
64138;PMS5003;50435;43.700;-79.318;2022-09-09T01:28:49;10;10;
64138;PMS5003;50435;43.700;-79.318;2022-09-09T01:31:18;7;7;
64138;PMS5003;50435;43.700;-79.318;2022-09-09T01:33:49;9;9;
64138;PMS5003;50435;43.700;-79.318;2022-09-09T01:36:19;8;8;
64138;PMS5003;50435;43.700;-79.318;2022-09-09T01:38:52;9;9;
64138;PMS5003;50435;43.700;-79.318;2022-09-09T01:41:21;6;6;
64138;PMS5003;50435;43.700;-79.318;2022-09-09T01:43:49;7;7;
64138;PMS5003;50435;43.700;-79.318;2022-09-09T01:46:16;8;7;
64138;PMS5003;50435;43.700;-79.318;2022-09-09T01:48:48;8;6;
64138;PMS5003;50435;43.700;-79.318;2022-09-09T01:51:17;7;7;
64138;PMS5003;50435;43.700;-79.318;2022-09-09T01:53:45;11;11;
64138;PMS5003;50435;43.700;-79.318;2022-09-09T01:56:18;12;8;
64138;PMS5003;50435;43.700;-79.318;2022-09-09T01:58:59;10;9;
64138;PMS5003;50435;43.700;-79.318;2022-09-09T02:01:37;7;7;
64138;PMS5003;50435;43.700;-79.318;2022-09-09T02:04:20;18;15;
64138;PMS5003;50435;43.700;-79.318;2022-09-09T02:06:59;13;10;
64138;PMS5003;50435;43.700;-79.318;2022-09-09T02:09:28;10;9;
64138;PMS5003;50435;43.700;-79.318;2022-09-09T02:11:57;11;11;
64138;PMS5003;50435;43.700;-79.318;2022-09-09T02:14:34;11;11;
64138;PMS5003;50435;43.700;-79.318;2022-09-09T02:17:08;13;13;
64138;PMS5003;50435;43.700;-79.318;2022-09-09T02:19:39;16;14;
64138;PMS5003;50435;43.700;-79.318;2022-09-09T02:22:11;14;11;
64138;PMS5003;50435;43.700;-79.318;2022-09-09T02:24:39;14;14;
64138;PMS5003;50435;43.700;-79.318;2022-09-09T02:27:07;14;13;
64138;PMS5003;50435;43.700;-79.318;2022-09-09T02:29:38;13;12;
64138;PMS5003;50435;43.700;-79.318;2022-09-09T02:32:08;12;11;
64138;PMS5003;50435;43.700;-79.318;2022-09-09T02:34:40;14;14;
64138;PMS5003;50435;43.700;-79.318;2022-09-09T02:37:11;14;13;
64138;PMS5003;50435;43.700;-79.318;2022-09-09T02:39:41;9;9;
64138;PMS5003;50435;43.700;-79.318;2022-09-09T02:42:08;13;11;
64138;PMS5003;50435;43.700;-79.318;2022-09-09T02:44:36;10;9;
64138;PMS5003;50435;43.700;-79.318;2022-09-09T02:47:07;11;11;
64138;PMS5003;50435;43.700;-79.318;2022-09-09T02:49:48;8;7;
64138;PMS5003;50435;43.700;-79.318;2022-09-09T02:52:26;12;12;
64138;PMS5003;50435;43.700;-79.318;2022-09-09T02:55:02;10;10;
64138;PMS5003;50435;43.700;-79.318;2022-09-09T02:57:34;12;12;
64138;PMS5003;50435;43.700;-79.318;2022-09-09T03:00:04;10;10;
64138;PMS5003;50435;43.700;-79.318;2022-09-09T03:02:33;11;9;
64138;PMS5003;50435;43.700;-79.318;2022-09-09T03:05:00;14;12;
64138;PMS5003;50435;43.700;-79.318;2022-09-09T03:07:28;9;9;
64138;PMS5003;50435;43.700;-79.318;2022-09-09T03:09:55;14;10;
64138;PMS5003;50435;43.700;-79.318;2022-09-09T03:12:23;12;11;
64138;PMS5003;50435;43.700;-79.318;2022-09-09T03:14:50;14;13;
64138;PMS5003;50435;43.700;-79.318;2022-09-09T03:17:18;9;9;
64138;PMS5003;50435;43.700;-79.318;2022-09-09T03:19:45;11;8;
64138;PMS5003;50435;43.700;-79.318;2022-09-09T03:22:13;11;10;
64138;PMS5003;50435;43.700;-79.318;2022-09-09T03:24:40;11;10;
64138;PMS5003;50435;43.700;-79.318;2022-09-09T03:27:08;8;8;
64138;PMS5003;50435;43.700;-79.318;2022-09-09T03:29:35;14;14;
64138;PMS5003;50435;43.700;-79.318;2022-09-09T03:32:02;11;9;
64138;PMS5003;50435;43.700;-79.318;2022-09-09T03:34:30;10;8;
64138;PMS5003;50435;43.700;-79.318;2022-09-09T03:36:57;9;9;
64138;PMS5003;50435;43.700;-79.318;2022-09-09T03:39:25;9;8;
64138;PMS5003;50435;43.700;-79.318;2022-09-09T03:41:52;8;8;
64138;PMS5003;50435;43.700;-79.318;2022-09-09T03:44:19;12;10;
64138;PMS5003;50435;43.700;-79.318;2022-09-09T03:46:47;10;10;
64138;PMS5003;50435;43.700;-79.318;2022-09-09T03:49:15;9;8;
64138;PMS5003;50435;43.700;-79.318;2022-09-09T03:51:42;11;9;
64138;PMS5003;50435;43.700;-79.318;2022-09-09T03:54:10;10;10;
64138;PMS5003;50435;43.700;-79.318;2022-09-09T03:56:37;12;11;
64138;PMS5003;50435;43.700;-79.318;2022-09-09T03:59:05;12;8;
64138;PMS5003;50435;43.700;-79.318;2022-09-09T04:01:33;10;10;
64138;PMS5003;50435;43.700;-79.318;2022-09-09T04:04:01;9;9;
64138;PMS5003;50435;43.700;-79.318;2022-09-09T04:06:29;8;8;
64138;PMS5003;50435;43.700;-79.318;2022-09-09T04:08:56;8;8;
64138;PMS5003;50435;43.700;-79.318;2022-09-09T04:11:24;10;9;
64138;PMS5003;50435;43.700;-79.318;2022-09-09T04:13:51;9;9;
64138;PMS5003;50435;43.700;-79.318;2022-09-09T04:16:19;12;10;
64138;PMS5003;50435;43.700;-79.318;2022-09-09T04:18:46;9;9;
64138;PMS5003;50435;43.700;-79.318;2022-09-09T04:21:14;9;7;
64138;PMS5003;50435;43.700;-79.318;2022-09-09T04:23:41;8;8;
64138;PMS5003;50435;43.700;-79.318;2022-09-09T04:26:08;12;9;
64138;PMS5003;50435;43.700;-79.318;2022-09-09T04:28:36;6;6;
64138;PMS5003;50435;43.700;-79.318;2022-09-09T04:31:04;8;8;
64138;PMS5003;50435;43.700;-79.318;2022-09-09T04:33:33;10;9;
64138;PMS5003;50435;43.700;-79.318;2022-09-09T04:36:01;9;8;
64138;PMS5003;50435;43.700;-79.318;2022-09-09T04:38:28;16;11;
64138;PMS5003;50435;43.700;-79.318;2022-09-09T04:40:56;8;8;
64138;PMS5003;50435;43.700;-79.318;2022-09-09T04:43:23;9;9;
64138;PMS5003;50435;43.700;-79.318;2022-09-09T04:45:51;9;9;
64138;PMS5003;50435;43.700;-79.318;2022-09-09T04:48:18;10;10;
64138;PMS5003;50435;43.700;-79.318;2022-09-09T04:50:53;7;7;
64138;PMS5003;50435;43.700;-79.318;2022-09-09T04:53:23;10;10;
64138;PMS5003;50435;43.700;-79.318;2022-09-09T04:55:50;7;7;
64138;PMS5003;50435;43.700;-79.318;2022-09-09T04:58:18;9;8;
64138;PMS5003;50435;43.700;-79.318;2022-09-09T05:00:45;10;9;
64138;PMS5003;50435;43.700;-79.318;2022-09-09T05:03:13;8;8;
64138;PMS5003;50435;43.700;-79.318;2022-09-09T05:05:40;10;10;
64138;PMS5003;50435;43.700;-79.318;2022-09-09T05:08:08;8;8;
64138;PMS5003;50435;43.700;-79.318;2022-09-09T05:10:37;10;8;
64138;PMS5003;50435;43.700;-79.318;2022-09-09T05:13:05;10;10;
64138;PMS5003;50435;43.700;-79.318;2022-09-09T05:15:32;8;8;
64138;PMS5003;50435;43.700;-79.318;2022-09-09T05:18:00;8;8;
64138;PMS5003;50435;43.700;-79.318;2022-09-09T05:20:28;8;8;
64138;PMS5003;50435;43.700;-79.318;2022-09-09T05:22:56;8;8;
64138;PMS5003;50435;43.700;-79.318;2022-09-09T05:25:24;9;9;
64138;PMS5003;50435;43.700;-79.318;2022-09-09T05:27:52;12;9;
64138;PMS5003;50435;43.700;-79.318;2022-09-09T05:30:19;7;7;
64138;PMS5003;50435;43.700;-79.318;2022-09-09T05:32:47;8;8;
64138;PMS5003;50435;43.700;-79.318;2022-09-09T05:35:14;8;8;
64138;PMS5003;50435;43.700;-79.318;2022-09-09T05:37:42;9;9;
64138;PMS5003;50435;43.700;-79.318;2022-09-09T05:40:10;9;9;
64138;PMS5003;50435;43.700;-79.318;2022-09-09T05:42:37;9;9;
64138;PMS5003;50435;43.700;-79.318;2022-09-09T05:45:05;11;9;
64138;PMS5003;50435;43.700;-79.318;2022-09-09T05:47:33;9;7;
64138;PMS5003;50435;43.700;-79.318;2022-09-09T05:50:01;10;10;
64138;PMS5003;50435;43.700;-79.318;2022-09-09T05:52:28;9;9;
64138;PMS5003;50435;43.700;-79.318;2022-09-09T05:54:56;10;9;
64138;PMS5003;50435;43.700;-79.318;2022-09-09T05:57:23;9;9;
64138;PMS5003;50435;43.700;-79.318;2022-09-09T05:59:50;12;10;
64138;PMS5003;50435;43.700;-79.318;2022-09-09T06:02:18;10;9;
64138;PMS5003;50435;43.700;-79.318;2022-09-09T06:04:46;9;9;
64138;PMS5003;50435;43.700;-79.318;2022-09-09T06:07:14;9;8;
64138;PMS5003;50435;43.700;-79.318;2022-09-09T06:09:41;10;7;
64138;PMS5003;50435;43.700;-79.318;2022-09-09T06:12:09;10;8;
64138;PMS5003;50435;43.700;-79.318;2022-09-09T06:14:36;7;7;
64138;PMS5003;50435;43.700;-79.318;2022-09-09T06:17:04;11;8;
64138;PMS5003;50435;43.700;-79.318;2022-09-09T06:19:32;12;10;
64138;PMS5003;50435;43.700;-79.318;2022-09-09T06:21:59;10;10;
64138;PMS5003;50435;43.700;-79.318;2022-09-09T06:24:27;10;10;
64138;PMS5003;50435;43.700;-79.318;2022-09-09T06:26:54;13;11;
64138;PMS5003;50435;43.700;-79.318;2022-09-09T06:29:22;7;7;
64138;PMS5003;50435;43.700;-79.318;2022-09-09T06:31:49;10;9;
64138;PMS5003;50435;43.700;-79.318;2022-09-09T06:34:17;10;6;
64138;PMS5003;50435;43.700;-79.318;2022-09-09T06:36:44;9;9;
64138;PMS5003;50435;43.700;-79.318;2022-09-09T06:39:11;9;8;
64138;PMS5003;50435;43.700;-79.318;2022-09-09T06:41:39;11;7;
64138;PMS5003;50435;43.700;-79.318;2022-09-09T06:44:07;11;9;
64138;PMS5003;50435;43.700;-79.318;2022-09-09T06:46:34;7;7;
64138;PMS5003;50435;43.700;-79.318;2022-09-09T06:49:02;7;7;
64138;PMS5003;50435;43.700;-79.318;2022-09-09T06:51:30;8;8;
64138;PMS5003;50435;43.700;-79.318;2022-09-09T06:53:58;10;9;
64138;PMS5003;50435;43.700;-79.318;2022-09-09T06:56:27;8;8;
64138;PMS5003;50435;43.700;-79.318;2022-09-09T06:58:57;8;7;
64138;PMS5003;50435;43.700;-79.318;2022-09-09T07:01:26;11;9;
64138;PMS5003;50435;43.700;-79.318;2022-09-09T07:03:55;10;10;
64138;PMS5003;50435;43.700;-79.318;2022-09-09T07:06:25;11;10;
64138;PMS5003;50435;43.700;-79.318;2022-09-09T07:08:54;7;7;
64138;PMS5003;50435;43.700;-79.318;2022-09-09T07:11:23;8;8;
64138;PMS5003;50435;43.700;-79.318;2022-09-09T07:13:52;11;9;
64138;PMS5003;50435;43.700;-79.318;2022-09-09T07:16:20;9;9;
64138;PMS5003;50435;43.700;-79.318;2022-09-09T07:18:48;7;7;
64138;PMS5003;50435;43.700;-79.318;2022-09-09T07:21:16;8;8;
64138;PMS5003;50435;43.700;-79.318;2022-09-09T07:23:44;8;8;
64138;PMS5003;50435;43.700;-79.318;2022-09-09T07:26:13;9;7;
64138;PMS5003;50435;43.700;-79.318;2022-09-09T07:28:42;10;9;
64138;PMS5003;50435;43.700;-79.318;2022-09-09T07:31:12;7;7;
64138;PMS5003;50435;43.700;-79.318;2022-09-09T07:33:41;11;9;
64138;PMS5003;50435;43.700;-79.318;2022-09-09T07:36:09;9;9;
64138;PMS5003;50435;43.700;-79.318;2022-09-09T07:38:40;11;10;
64138;PMS5003;50435;43.700;-79.318;2022-09-09T07:41:08;9;8;
64138;PMS5003;50435;43.700;-79.318;2022-09-09T07:43:37;11;11;
64138;PMS5003;50435;43.700;-79.318;2022-09-09T07:46:05;10;9;
64138;PMS5003;50435;43.700;-79.318;2022-09-09T07:48:33;12;10;
64138;PMS5003;50435;43.700;-79.318;2022-09-09T07:51:04;9;9;
64138;PMS5003;50435;43.700;-79.318;2022-09-09T07:53:33;8;8;
64138;PMS5003;50435;43.700;-79.318;2022-09-09T07:56:03;7;7;
64138;PMS5003;50435;43.700;-79.318;2022-09-09T07:58:31;8;8;
64138;PMS5003;50435;43.700;-79.318;2022-09-09T08:00:59;11;10;
64138;PMS5003;50435;43.700;-79.318;2022-09-09T08:03:26;9;9;
64138;PMS5003;50435;43.700;-79.318;2022-09-09T08:05:59;10;7;
64138;PMS5003;50435;43.700;-79.318;2022-09-09T08:08:29;11;9;
64138;PMS5003;50435;43.700;-79.318;2022-09-09T08:11:01;9;9;
64138;PMS5003;50435;43.700;-79.318;2022-09-09T08:13:30;8;8;
64138;PMS5003;50435;43.700;-79.318;2022-09-09T08:16:03;7;7;
64138;PMS5003;50435;43.700;-79.318;2022-09-09T08:18:33;7;6;
64138;PMS5003;50435;43.700;-79.318;2022-09-09T08:21:08;9;7;
64138;PMS5003;50435;43.700;-79.318;2022-09-09T08:23:38;8;8;
64138;PMS5003;50435;43.700;-79.318;2022-09-09T08:26:06;9;9;
64138;PMS5003;50435;43.700;-79.318;2022-09-09T08:28:36;7;7;
64138;PMS5003;50435;43.700;-79.318;2022-09-09T08:31:05;9;9;
64138;PMS5003;50435;43.700;-79.318;2022-09-09T08:33:33;8;7;
64138;PMS5003;50435;43.700;-79.318;2022-09-09T08:36:01;8;8;
64138;PMS5003;50435;43.700;-79.318;2022-09-09T08:38:29;11;8;
64138;PMS5003;50435;43.700;-79.318;2022-09-09T08:40:59;8;7;
64138;PMS5003;50435;43.700;-79.318;2022-09-09T08:43:35;11;10;
64138;PMS5003;50435;43.700;-79.318;2022-09-09T08:46:04;11;10;
64138;PMS5003;50435;43.700;-79.318;2022-09-09T08:48:43;8;8;
64138;PMS5003;50435;43.700;-79.318;2022-09-09T08:51:17;9;8;
64138;PMS5003;50435;43.700;-79.318;2022-09-09T08:53:46;10;10;
64138;PMS5003;50435;43.700;-79.318;2022-09-09T08:56:18;10;9;
64138;PMS5003;50435;43.700;-79.318;2022-09-09T08:58:51;8;8;
64138;PMS5003;50435;43.700;-79.318;2022-09-09T09:01:28;7;7;
64138;PMS5003;50435;43.700;-79.318;2022-09-09T09:04:12;7;7;
64138;PMS5003;50435;43.700;-79.318;2022-09-09T09:06:57;8;8;
64138;PMS5003;50435;43.700;-79.318;2022-09-09T09:09:33;8;8;
64138;PMS5003;50435;43.700;-79.318;2022-09-09T09:12:15;7;7;
64138;PMS5003;50435;43.700;-79.318;2022-09-09T09:14:46;7;7;
64138;PMS5003;50435;43.700;-79.318;2022-09-09T09:17:16;5;5;
64138;PMS5003;50435;43.700;-79.318;2022-09-09T09:19:46;10;10;
64138;PMS5003;50435;43.700;-79.318;2022-09-09T09:22:16;10;8;
64138;PMS5003;50435;43.700;-79.318;2022-09-09T09:24:49;10;9;
64138;PMS5003;50435;43.700;-79.318;2022-09-09T09:27:21;9;9;
64138;PMS5003;50435;43.700;-79.318;2022-09-09T09:30:02;11;10;
64138;PMS5003;50435;43.700;-79.318;2022-09-09T09:32:41;8;8;
64138;PMS5003;50435;43.700;-79.318;2022-09-09T09:35:15;9;8;
64138;PMS5003;50435;43.700;-79.318;2022-09-09T09:37:42;10;10;
64138;PMS5003;50435;43.700;-79.318;2022-09-09T09:40:10;7;7;
64138;PMS5003;50435;43.700;-79.318;2022-09-09T09:42:38;10;10;
64138;PMS5003;50435;43.700;-79.318;2022-09-09T09:45:16;7;7;
64138;PMS5003;50435;43.700;-79.318;2022-09-09T09:47:57;6;6;
64138;PMS5003;50435;43.700;-79.318;2022-09-09T09:50:26;12;12;
64138;PMS5003;50435;43.700;-79.318;2022-09-09T09:52:54;11;9;
64138;PMS5003;50435;43.700;-79.318;2022-09-09T09:55:23;11;9;
64138;PMS5003;50435;43.700;-79.318;2022-09-09T09:57:51;11;10;
64138;PMS5003;50435;43.700;-79.318;2022-09-09T10:00:19;7;7;
64138;PMS5003;50435;43.700;-79.318;2022-09-09T10:02:48;9;8;
64138;PMS5003;50435;43.700;-79.318;2022-09-09T10:05:17;10;8;
64138;PMS5003;50435;43.700;-79.318;2022-09-09T10:07:46;8;6;
64138;PMS5003;50435;43.700;-79.318;2022-09-09T10:10:26;12;12;
64138;PMS5003;50435;43.700;-79.318;2022-09-09T10:13:04;12;9;
64138;PMS5003;50435;43.700;-79.318;2022-09-09T10:15:42;11;10;
64138;PMS5003;50435;43.700;-79.318;2022-09-09T10:18:22;9;9;
64138;PMS5003;50435;43.700;-79.318;2022-09-09T10:21:03;7;6;
64138;PMS5003;50435;43.700;-79.318;2022-09-09T10:23:45;6;6;
64138;PMS5003;50435;43.700;-79.318;2022-09-09T10:26:28;9;9;
64138;PMS5003;50435;43.700;-79.318;2022-09-09T10:29:06;9;9;
64138;PMS5003;50435;43.700;-79.318;2022-09-09T10:31:53;9;8;
64138;PMS5003;50435;43.700;-79.318;2022-09-09T10:34:35;9;7;
64138;PMS5003;50435;43.700;-79.318;2022-09-09T10:37:22;8;8;
64138;PMS5003;50435;43.700;-79.318;2022-09-09T10:40:04;8;8;
64138;PMS5003;50435;43.700;-79.318;2022-09-09T10:42:44;9;9;
64138;PMS5003;50435;43.700;-79.318;2022-09-09T10:45:16;10;9;
64138;PMS5003;50435;43.700;-79.318;2022-09-09T10:47:50;9;9;
64138;PMS5003;50435;43.700;-79.318;2022-09-09T10:50:36;12;11;
64138;PMS5003;50435;43.700;-79.318;2022-09-09T10:53:15;8;8;
64138;PMS5003;50435;43.700;-79.318;2022-09-09T10:55:51;14;12;
64138;PMS5003;50435;43.700;-79.318;2022-09-09T10:58:25;10;10;
64138;PMS5003;50435;43.700;-79.318;2022-09-09T11:00:59;13;12;
64138;PMS5003;50435;43.700;-79.318;2022-09-09T11:03:30;12;11;
64138;PMS5003;50435;43.700;-79.318;2022-09-09T11:06:01;9;8;
64138;PMS5003;50435;43.700;-79.318;2022-09-09T11:08:34;15;11;
64138;PMS5003;50435;43.700;-79.318;2022-09-09T11:11:07;9;8;
64138;PMS5003;50435;43.700;-79.318;2022-09-09T11:13:42;11;10;
64138;PMS5003;50435;43.700;-79.318;2022-09-09T11:16:19;11;11;
64138;PMS5003;50435;43.700;-79.318;2022-09-09T11:18:55;10;10;
64138;PMS5003;50435;43.700;-79.318;2022-09-09T11:21:28;10;10;
64138;PMS5003;50435;43.700;-79.318;2022-09-09T11:23:59;9;9;
64138;PMS5003;50435;43.700;-79.318;2022-09-09T11:26:32;12;12;
64138;PMS5003;50435;43.700;-79.318;2022-09-09T11:29:08;11;10;
64138;PMS5003;50435;43.700;-79.318;2022-09-09T11:31:54;12;12;
64138;PMS5003;50435;43.700;-79.318;2022-09-09T11:34:35;11;11;
64138;PMS5003;50435;43.700;-79.318;2022-09-09T11:37:31;10;10;
64138;PMS5003;50435;43.700;-79.318;2022-09-09T11:40:16;12;12;
64138;PMS5003;50435;43.700;-79.318;2022-09-09T11:42:47;11;11;
64138;PMS5003;50435;43.700;-79.318;2022-09-09T11:45:20;16;13;
64138;PMS5003;50435;43.700;-79.318;2022-09-09T11:47:52;12;12;
64138;PMS5003;50435;43.700;-79.318;2022-09-09T11:50:29;13;12;
64138;PMS5003;50435;43.700;-79.318;2022-09-09T11:53:16;12;11;
64138;PMS5003;50435;43.700;-79.318;2022-09-09T11:55:47;14;14;
64138;PMS5003;50435;43.700;-79.318;2022-09-09T11:58:15;12;12;
64138;PMS5003;50435;43.700;-79.318;2022-09-09T12:00:44;12;12;
64138;PMS5003;50435;43.700;-79.318;2022-09-09T12:03:31;13;13;
64138;PMS5003;50435;43.700;-79.318;2022-09-09T12:06:09;15;12;
64138;PMS5003;50435;43.700;-79.318;2022-09-09T12:08:43;18;14;
64138;PMS5003;50435;43.700;-79.318;2022-09-09T12:11:22;15;13;
64138;PMS5003;50435;43.700;-79.318;2022-09-09T12:13:53;11;11;
64138;PMS5003;50435;43.700;-79.318;2022-09-09T12:16:30;12;11;
64138;PMS5003;50435;43.700;-79.318;2022-09-09T12:19:04;13;13;
64138;PMS5003;50435;43.700;-79.318;2022-09-09T12:21:34;14;13;
64138;PMS5003;50435;43.700;-79.318;2022-09-09T12:24:11;10;10;
64138;PMS5003;50435;43.700;-79.318;2022-09-09T12:26:46;12;11;
64138;PMS5003;50435;43.700;-79.318;2022-09-09T12:29:23;12;10;
64138;PMS5003;50435;43.700;-79.318;2022-09-09T12:31:56;11;11;
64138;PMS5003;50435;43.700;-79.318;2022-09-09T12:34:35;12;12;
64138;PMS5003;50435;43.700;-79.318;2022-09-09T12:37:08;11;9;
64138;PMS5003;50435;43.700;-79.318;2022-09-09T12:39:43;12;12;
64138;PMS5003;50435;43.700;-79.318;2022-09-09T12:42:16;10;10;
64138;PMS5003;50435;43.700;-79.318;2022-09-09T12:44:53;11;11;
64138;PMS5003;50435;43.700;-79.318;2022-09-09T12:47:22;12;12;
64138;PMS5003;50435;43.700;-79.318;2022-09-09T12:49:57;17;14;
64138;PMS5003;50435;43.700;-79.318;2022-09-09T12:52:26;11;9;
64138;PMS5003;50435;43.700;-79.318;2022-09-09T12:54:57;10;10;
64138;PMS5003;50435;43.700;-79.318;2022-09-09T12:57:28;13;13;
64138;PMS5003;50435;43.700;-79.318;2022-09-09T13:00:06;14;13;
64138;PMS5003;50435;43.700;-79.318;2022-09-09T13:02:45;12;12;
64138;PMS5003;50435;43.700;-79.318;2022-09-09T13:05:15;15;13;
64138;PMS5003;50435;43.700;-79.318;2022-09-09T13:07:46;14;12;
64138;PMS5003;50435;43.700;-79.318;2022-09-09T13:10:14;12;12;
64138;PMS5003;50435;43.700;-79.318;2022-09-09T13:12:47;13;13;
64138;PMS5003;50435;43.700;-79.318;2022-09-09T13:15:19;20;17;
64138;PMS5003;50435;43.700;-79.318;2022-09-09T13:17:50;15;14;
64138;PMS5003;50435;43.700;-79.318;2022-09-09T13:20:19;18;16;
64138;PMS5003;50435;43.700;-79.318;2022-09-09T13:22:48;18;18;
64138;PMS5003;50435;43.700;-79.318;2022-09-09T13:25:18;15;15;
64138;PMS5003;50435;43.700;-79.318;2022-09-09T13:27:54;17;13;
64138;PMS5003;50435;43.700;-79.318;2022-09-09T13:30:26;15;14;
64138;PMS5003;50435;43.700;-79.318;2022-09-09T13:33:03;16;16;
64138;PMS5003;50435;43.700;-79.318;2022-09-09T13:35:33;13;13;
64138;PMS5003;50435;43.700;-79.318;2022-09-09T13:38:09;18;16;
64138;PMS5003;50435;43.700;-79.318;2022-09-09T13:40:40;16;13;
64138;PMS5003;50435;43.700;-79.318;2022-09-09T13:43:19;19;18;
64138;PMS5003;50435;43.700;-79.318;2022-09-09T13:45:52;13;13;
64138;PMS5003;50435;43.700;-79.318;2022-09-09T13:48:21;13;12;
64138;PMS5003;50435;43.700;-79.318;2022-09-09T13:50:54;13;13;
64138;PMS5003;50435;43.700;-79.318;2022-09-09T13:53:22;15;14;
64138;PMS5003;50435;43.700;-79.318;2022-09-09T13:55:50;14;13;
64138;PMS5003;50435;43.700;-79.318;2022-09-09T13:58:18;13;12;
64138;PMS5003;50435;43.700;-79.318;2022-09-09T14:00:46;14;14;
64138;PMS5003;50435;43.700;-79.318;2022-09-09T14:03:13;14;13;
64138;PMS5003;50435;43.700;-79.318;2022-09-09T14:05:41;12;11;
64138;PMS5003;50435;43.700;-79.318;2022-09-09T14:08:11;10;9;
64138;PMS5003;50435;43.700;-79.318;2022-09-09T14:10:45;11;10;
64138;PMS5003;50435;43.700;-79.318;2022-09-09T14:13:12;11;11;
64138;PMS5003;50435;43.700;-79.318;2022-09-09T14:15:40;11;11;
64138;PMS5003;50435;43.700;-79.318;2022-09-09T14:18:08;15;15;
64138;PMS5003;50435;43.700;-79.318;2022-09-09T14:20:38;11;11;
64138;PMS5003;50435;43.700;-79.318;2022-09-09T14:23:05;14;14;
64138;PMS5003;50435;43.700;-79.318;2022-09-09T14:25:32;9;9;
64138;PMS5003;50435;43.700;-79.318;2022-09-09T14:28:00;11;10;
64138;PMS5003;50435;43.700;-79.318;2022-09-09T14:30:28;9;9;
64138;PMS5003;50435;43.700;-79.318;2022-09-09T14:32:55;10;10;
64138;PMS5003;50435;43.700;-79.318;2022-09-09T14:35:23;12;9;
64138;PMS5003;50435;43.700;-79.318;2022-09-09T14:37:50;11;11;
64138;PMS5003;50435;43.700;-79.318;2022-09-09T14:40:18;12;11;
64138;PMS5003;50435;43.700;-79.318;2022-09-09T14:42:45;11;11;
64138;PMS5003;50435;43.700;-79.318;2022-09-09T14:45:12;10;10;
64138;PMS5003;50435;43.700;-79.318;2022-09-09T14:47:40;8;8;
64138;PMS5003;50435;43.700;-79.318;2022-09-09T14:50:07;11;10;
64138;PMS5003;50435;43.700;-79.318;2022-09-09T14:52:35;8;8;
64138;PMS5003;50435;43.700;-79.318;2022-09-09T14:55:03;10;9;
64138;PMS5003;50435;43.700;-79.318;2022-09-09T14:57:31;8;8;
64138;PMS5003;50435;43.700;-79.318;2022-09-09T14:59:58;11;11;
64138;PMS5003;50435;43.700;-79.318;2022-09-09T15:02:26;9;9;
64138;PMS5003;50435;43.700;-79.318;2022-09-09T15:04:53;6;6;
64138;PMS5003;50435;43.700;-79.318;2022-09-09T15:07:21;7;7;
64138;PMS5003;50435;43.700;-79.318;2022-09-09T15:09:48;7;7;
64138;PMS5003;50435;43.700;-79.318;2022-09-09T15:12:16;10;9;
64138;PMS5003;50435;43.700;-79.318;2022-09-09T15:14:43;8;8;
64138;PMS5003;50435;43.700;-79.318;2022-09-09T15:17:11;10;9;
64138;PMS5003;50435;43.700;-79.318;2022-09-09T15:19:38;11;11;
64138;PMS5003;50435;43.700;-79.318;2022-09-09T15:22:06;9;9;
64138;PMS5003;50435;43.700;-79.318;2022-09-09T15:24:34;9;9;
64138;PMS5003;50435;43.700;-79.318;2022-09-09T15:27:02;9;8;
64138;PMS5003;50435;43.700;-79.318;2022-09-09T15:29:29;5;5;
64138;PMS5003;50435;43.700;-79.318;2022-09-09T15:31:57;7;7;
64138;PMS5003;50435;43.700;-79.318;2022-09-09T15:34:24;7;7;
64138;PMS5003;50435;43.700;-79.318;2022-09-09T15:36:51;8;8;
64138;PMS5003;50435;43.700;-79.318;2022-09-09T15:39:19;11;11;
64138;PMS5003;50435;43.700;-79.318;2022-09-09T15:41:47;9;9;
64138;PMS5003;50435;43.700;-79.318;2022-09-09T15:44:15;6;6;
64138;PMS5003;50435;43.700;-79.318;2022-09-09T15:46:43;6;5;
64138;PMS5003;50435;43.700;-79.318;2022-09-09T15:49:13;8;8;
64138;PMS5003;50435;43.700;-79.318;2022-09-09T15:51:42;7;7;
64138;PMS5003;50435;43.700;-79.318;2022-09-09T15:54:12;10;7;
64138;PMS5003;50435;43.700;-79.318;2022-09-09T15:56:41;7;6;
64138;PMS5003;50435;43.700;-79.318;2022-09-09T15:59:08;5;5;
64138;PMS5003;50435;43.700;-79.318;2022-09-09T16:01:36;8;8;
64138;PMS5003;50435;43.700;-79.318;2022-09-09T16:04:04;5;5;
64138;PMS5003;50435;43.700;-79.318;2022-09-09T16:06:31;7;7;
64138;PMS5003;50435;43.700;-79.318;2022-09-09T16:08:59;5;5;
64138;PMS5003;50435;43.700;-79.318;2022-09-09T16:11:29;5;5;
64138;PMS5003;50435;43.700;-79.318;2022-09-09T16:13:59;6;6;
64138;PMS5003;50435;43.700;-79.318;2022-09-09T16:16:27;6;6;
64138;PMS5003;50435;43.700;-79.318;2022-09-09T16:18:57;6;6;
64138;PMS5003;50435;43.700;-79.318;2022-09-09T16:21:27;11;8;
64138;PMS5003;50435;43.700;-79.318;2022-09-09T16:23:57;5;5;
64138;PMS5003;50435;43.700;-79.318;2022-09-09T16:26:26;8;7;
64138;PMS5003;50435;43.700;-79.318;2022-09-09T16:28:54;5;5;